Wetterdaten: Woche 25.07.11 - 31.07.11 (KW30)
Datum Zeit Temperatur Luftfeuchte Luftdruck Niederschlag Windrichtung Sonnenschein Solar Wind
25.07.2011 00:00 10,7 C 85 % 1011,9 hPa 0,0 l/m W-SW 0,00 h 0 W/m 7,8 km/h (2 Bft)
25.07.2011 01:00 10,4 C 87 % 1011,6 hPa 0,0 l/m SW 0,00 h 0 W/m 4,9 km/h (1 Bft)
25.07.2011 02:00 10,4 C 86 % 1011,3 hPa 0,0 l/m SW 0,00 h 0 W/m 6,7 km/h (2 Bft)
25.07.2011 03:00 10,5 C 87 % 1011,0 hPa 0,0 l/m SW 0,00 h 0 W/m 9,0 km/h (2 Bft)
25.07.2011 04:00 10,1 C 92 % 1010,7 hPa 0,0 l/m SW 0,00 h 0 W/m 4,1 km/h (1 Bft)
25.07.2011 05:00 9,8 C 95 % 1010,5 hPa 0,2 l/m SW 0,00 h 0 W/m 3,2 km/h (1 Bft)
25.07.2011 06:00 9,8 C 96 % 1010,6 hPa 0,2 l/m SW 0,00 h 13 W/m 10,1 km/h (2 Bft)
25.07.2011 07:00 10,1 C 96 % 1010,6 hPa 0,0 l/m S-SW 0,00 h 37 W/m 13,7 km/h (3 Bft)
25.07.2011 08:00 10,8 C 95 % 1010,7 hPa 0,0 l/m S-SW 0,00 h 108 W/m 13,4 km/h (3 Bft)
25.07.2011 09:00 12,0 C 91 % 1010,6 hPa 0,0 l/m S-SW 0,08 h 186 W/m 13,7 km/h (3 Bft)
25.07.2011 10:00 13,2 C 86 % 1010,3 hPa 0,0 l/m S-SW 0,42 h 461 W/m 15,8 km/h (3 Bft)
25.07.2011 11:00 15,5 C 78 % 1010,2 hPa 0,0 l/m S-SO 0,58 h 477 W/m 15,2 km/h (3 Bft)
25.07.2011 12:00 16,8 C 71 % 1009,7 hPa 0,0 l/m S-SW 0,67 h 656 W/m 18,8 km/h (3 Bft)
25.07.2011 13:00 17,2 C 65 % 1009,2 hPa 0,0 l/m S-SW 0,33 h 463 W/m 19,4 km/h (3 Bft)
25.07.2011 14:00 17,4 C 61 % 1008,8 hPa 0,0 l/m S-SW 0,08 h 301 W/m 13,0 km/h (3 Bft)
25.07.2011 15:00 17,0 C 61 % 1008,7 hPa 0,0 l/m W-SW 0,08 h 228 W/m 10,5 km/h (2 Bft)
25.07.2011 16:00 18,6 C 55 % 1008,5 hPa 0,0 l/m W-NW 0,50 h 494 W/m 11,2 km/h (2 Bft)
25.07.2011 17:00 17,5 C 59 % 1008,3 hPa 0,0 l/m N 0,50 h 307 W/m 7,8 km/h (2 Bft)
25.07.2011 18:00 17,9 C 57 % 1008,1 hPa 0,0 l/m N-NO 0,83 h 286 W/m 7,4 km/h (2 Bft)
25.07.2011 19:00 16,4 C 69 % 1008,2 hPa 0,0 l/m N-NO 0,33 h 105 W/m 2,3 km/h (1 Bft)
25.07.2011 20:00 13,9 C 83 % 1008,3 hPa 0,0 l/m N 0,17 h 24 W/m 1,9 km/h (1 Bft)
25.07.2011 21:00 12,1 C 88 % 1008,8 hPa 0,0 l/m N 0,00 h 5 W/m 1,2 km/h (1 Bft)
25.07.2011 22:00 10,9 C 91 % 1009,4 hPa 0,0 l/m N 0,00 h 0 W/m 0,9 km/h (0 Bft)
25.07.2011 23:00 10,0 C 94 % 1009,5 hPa 0,0 l/m N 0,00 h 0 W/m 1,1 km/h (0 Bft)
26.07.2011 00:00 9,5 C 95 % 1009,5 hPa 0,0 l/m N 0,00 h 0 W/m 0,0 km/h (0 Bft)
26.07.2011 01:00 8,9 C 96 % 1009,7 hPa 0,0 l/m N 0,00 h 0 W/m 0,0 km/h (0 Bft)
26.07.2011 02:00 8,4 C 97 % 1009,8 hPa 0,0 l/m N 0,00 h 0 W/m 0,0 km/h (0 Bft)
26.07.2011 03:00 7,9 C 97 % 1009,7 hPa 0,0 l/m N 0,00 h 0 W/m 0,0 km/h (0 Bft)
26.07.2011 04:00 7,8 C 97 % 1009,6 hPa 0,0 l/m N 0,00 h 0 W/m 0,0 km/h (0 Bft)
26.07.2011 05:00 7,2 C 97 % 1009,7 hPa 0,0 l/m N 0,00 h 5 W/m 0,1 km/h (0 Bft)
26.07.2011 06:00 7,5 C 98 % 1010,0 hPa 0,0 l/m N 0,00 h 24 W/m 0,0 km/h (0 Bft)
26.07.2011 07:00 8,6 C 97 % 1010,3 hPa 0,0 l/m N 0,00 h 58 W/m 0,1 km/h (0 Bft)
26.07.2011 08:00 10,0 C 96 % 1010,3 hPa 0,0 l/m N 0,08 h 138 W/m 0,3 km/h (0 Bft)
26.07.2011 09:00 13,2 C 85 % 1010,5 hPa 0,0 l/m N-NO 0,92 h 507 W/m 3,3 km/h (1 Bft)
26.07.2011 10:00 17,0 C 69 % 1010,7 hPa 0,0 l/m O-SO 1,00 h 679 W/m 6,7 km/h (2 Bft)
26.07.2011 11:00 19,3 C 51 % 1010,8 hPa 0,0 l/m SO 1,00 h 806 W/m 7,9 km/h (2 Bft)
26.07.2011 12:00 20,7 C 45 % 1010,8 hPa 0,0 l/m O-SO 1,00 h 874 W/m 9,9 km/h (2 Bft)
26.07.2011 13:00 21,8 C 41 % 1010,7 hPa 0,0 l/m O 1,00 h 931 W/m 11,4 km/h (2 Bft)
26.07.2011 14:00 22,0 C 41 % 1010,6 hPa 0,0 l/m NO 0,83 h 790 W/m 10,6 km/h (2 Bft)
26.07.2011 15:00 22,6 C 39 % 1010,6 hPa 0,0 l/m S-SW 1,00 h 814 W/m 10,5 km/h (2 Bft)
26.07.2011 16:00 22,3 C 38 % 1010,5 hPa 0,0 l/m S-SW 0,67 h 495 W/m 8,5 km/h (2 Bft)
26.07.2011 17:00 21,3 C 45 % 1010,6 hPa 0,0 l/m SW 0,17 h 173 W/m 3,3 km/h (1 Bft)
26.07.2011 18:00 19,6 C 59 % 1010,8 hPa 0,0 l/m N 0,00 h 92 W/m 3,3 km/h (1 Bft)
26.07.2011 19:00 19,1 C 58 % 1011,1 hPa 0,0 l/m N-NW 0,00 h 44 W/m 6,0 km/h (2 Bft)
26.07.2011 20:00 17,8 C 66 % 1011,5 hPa 0,0 l/m N-NW 0,00 h 11 W/m 4,5 km/h (1 Bft)
26.07.2011 21:00 16,6 C 71 % 1012,0 hPa 0,0 l/m N 0,00 h 0 W/m 3,1 km/h (1 Bft)
26.07.2011 22:00 16,1 C 73 % 1012,5 hPa 0,0 l/m N-NW 0,00 h 0 W/m 6,8 km/h (2 Bft)
26.07.2011 23:00 15,2 C 78 % 1012,9 hPa 0,0 l/m NW 0,00 h 0 W/m 5,5 km/h (1 Bft)
27.07.2011 00:00 14,4 C 85 % 1013,1 hPa 0,0 l/m N 0,00 h 0 W/m 1,1 km/h (0 Bft)
27.07.2011 01:00 14,4 C 87 % 1013,2 hPa 0,0 l/m N 0,00 h 0 W/m 0,9 km/h (0 Bft)
27.07.2011 02:00 14,0 C 90 % 1013,3 hPa 0,0 l/m N 0,00 h 0 W/m 0,0 km/h (0 Bft)
27.07.2011 03:00 13,6 C 92 % 1013,3 hPa 0,0 l/m N 0,00 h 0 W/m 0,0 km/h (0 Bft)
27.07.2011 04:00 13,2 C 93 % 1013,4 hPa 0,0 l/m N 0,00 h 0 W/m 0,0 km/h (0 Bft)
27.07.2011 05:00 13,1 C 94 % 1013,4 hPa 0,0 l/m N 0,00 h 0 W/m 0,0 km/h (0 Bft)
27.07.2011 06:00 13,0 C 95 % 1013,5 hPa 0,4 l/m N 0,00 h 11 W/m 0,8 km/h (0 Bft)
27.07.2011 07:00 13,2 C 97 % 1013,9 hPa 0,0 l/m N 0,00 h 37 W/m 0,1 km/h (0 Bft)
27.07.2011 08:00 14,1 C 96 % 1014,2 hPa 0,0 l/m N 0,00 h 96 W/m 0,1 km/h (0 Bft)
27.07.2011 09:00 15,4 C 92 % 1014,3 hPa 0,0 l/m N 0,00 h 117 W/m 1,2 km/h (1 Bft)
27.07.2011 10:00 15,7 C 92 % 1014,4 hPa 0,2 l/m N 0,00 h 131 W/m 2,5 km/h (1 Bft)
27.07.2011 11:00 16,6 C 90 % 1014,7 hPa 0,2 l/m N-NO 0,25 h 371 W/m 3,7 km/h (1 Bft)
27.07.2011 12:00 18,6 C 78 % 1014,7 hPa 0,0 l/m O 0,58 h 564 W/m 6,7 km/h (2 Bft)
27.07.2011 13:00 20,6 C 66 % 1014,4 hPa 0,0 l/m O-SO 0,58 h 758 W/m 8,5 km/h (2 Bft)
27.07.2011 14:00 22,5 C 54 % 1013,8 hPa 0,0 l/m O-SO 1,00 h 902 W/m 12,2 km/h (2 Bft)
27.07.2011 15:00 23,1 C 52 % 1013,4 hPa 0,0 l/m O-NO 0,75 h 697 W/m 13,4 km/h (3 Bft)
27.07.2011 16:00 22,6 C 51 % 1012,9 hPa 0,0 l/m O 0,33 h 335 W/m 11,2 km/h (2 Bft)
27.07.2011 17:00 23,1 C 51 % 1012,7 hPa 0,0 l/m O-SO 0,83 h 533 W/m 11,1 km/h (2 Bft)
27.07.2011 18:00 22,2 C 54 % 1012,7 hPa 0,0 l/m O-SO 0,17 h 119 W/m 5,9 km/h (2 Bft)
27.07.2011 19:00 18,6 C 69 % 1013,3 hPa 0,0 l/m W 0,00 h 12 W/m 18,4 km/h (3 Bft)
27.07.2011 20:00 15,1 C 83 % 1013,9 hPa 1,4 l/m W-NW 0,00 h 0 W/m 18,1 km/h (3 Bft)
27.07.2011 21:00 14,1 C 93 % 1014,7 hPa 0,6 l/m SW 0,00 h 0 W/m 8,6 km/h (2 Bft)
27.07.2011 22:00 14,1 C 95 % 1015,5 hPa 0,6 l/m SW 0,00 h 0 W/m 2,7 km/h (1 Bft)
27.07.2011 23:00 14,0 C 95 % 1015,7 hPa 0,2 l/m S-SW 0,00 h 0 W/m 9,2 km/h (2 Bft)
28.07.2011 00:00 14,0 C 96 % 1015,6 hPa 0,0 l/m SW 0,00 h 0 W/m 7,4 km/h (2 Bft)
28.07.2011 01:00 13,9 C 96 % 1015,4 hPa 0,2 l/m N 0,00 h 0 W/m 0,8 km/h (0 Bft)
28.07.2011 02:00 13,6 C 97 % 1015,5 hPa 0,0 l/m N 0,00 h 0 W/m 1,2 km/h (1 Bft)
28.07.2011 03:00 13,6 C 98 % 1015,6 hPa 0,0 l/m N 0,00 h 0 W/m 0,3 km/h (0 Bft)
28.07.2011 04:00 13,7 C 98 % 1015,6 hPa 0,0 l/m N 0,00 h 0 W/m 0,0 km/h (0 Bft)
28.07.2011 05:00 13,5 C 98 % 1015,5 hPa 0,0 l/m N 0,00 h 0 W/m 0,0 km/h (0 Bft)
28.07.2011 06:00 13,6 C 99 % 1015,6 hPa 0,0 l/m N 0,00 h 10 W/m 0,5 km/h (0 Bft)
28.07.2011 07:00 14,0 C 99 % 1015,7 hPa 0,0 l/m N 0,00 h 60 W/m 2,7 km/h (1 Bft)
28.07.2011 08:00 14,8 C 97 % 1015,7 hPa 0,0 l/m W-SW 0,00 h 107 W/m 3,7 km/h (1 Bft)
28.07.2011 09:00 15,3 C 93 % 1016,0 hPa 0,0 l/m W-SW 0,00 h 131 W/m 2,7 km/h (1 Bft)
28.07.2011 10:00 15,9 C 90 % 1016,2 hPa 0,0 l/m W-SW 0,00 h 180 W/m 5,5 km/h (1 Bft)
28.07.2011 11:00 16,7 C 85 % 1016,1 hPa 0,0 l/m N-NW 0,00 h 237 W/m 5,7 km/h (1 Bft)
28.07.2011 12:00 18,1 C 79 % 1015,9 hPa 0,0 l/m N-NW 0,33 h 596 W/m 5,8 km/h (1 Bft)
28.07.2011 13:00 17,0 C 85 % 1015,7 hPa 0,4 l/m N-NO 0,00 h 124 W/m 9,0 km/h (2 Bft)
28.07.2011 14:00 17,2 C 88 % 1015,5 hPa 0,2 l/m NO 0,33 h 458 W/m 7,4 km/h (2 Bft)
28.07.2011 15:00 18,8 C 80 % 1014,9 hPa 0,0 l/m O-SO 0,67 h 713 W/m 9,3 km/h (2 Bft)
28.07.2011 16:00 18,1 C 83 % 1014,9 hPa 0,0 l/m O-SO 0,00 h 98 W/m 4,7 km/h (1 Bft)
28.07.2011 17:00 17,4 C 85 % 1014,9 hPa 0,0 l/m W-SW 0,00 h 75 W/m 7,4 km/h (2 Bft)
28.07.2011 18:00 16,4 C 90 % 1015,2 hPa 0,2 l/m W-NW 0,00 h 60 W/m 8,2 km/h (2 Bft)
28.07.2011 19:00 16,3 C 92 % 1015,5 hPa 0,0 l/m N 0,00 h 42 W/m 1,6 km/h (1 Bft)
28.07.2011 20:00 15,8 C 94 % 1016,0 hPa 1,4 l/m O-SO 0,00 h 10 W/m 6,4 km/h (2 Bft)
28.07.2011 21:00 14,0 C 95 % 1016,7 hPa 11,2 l/m SO 0,00 h 0 W/m 5,3 km/h (1 Bft)
28.07.2011 22:00 13,4 C 97 % 1016,9 hPa 0,0 l/m N 0,00 h 0 W/m 1,1 km/h (0 Bft)
28.07.2011 23:00 12,9 C 98 % 1017,4 hPa 0,0 l/m N 0,00 h 0 W/m 0,5 km/h (0 Bft)
29.07.2011 00:00 13,1 C 98 % 1017,3 hPa 0,0 l/m N 0,00 h 0 W/m 0,3 km/h (0 Bft)
29.07.2011 01:00 12,9 C 98 % 1017,1 hPa 0,0 l/m N 0,00 h 0 W/m 0,0 km/h (0 Bft)
29.07.2011 02:00 12,7 C 98 % 1016,8 hPa 0,0 l/m N 0,00 h 0 W/m 1,3 km/h (1 Bft)
29.07.2011 03:00 12,2 C 99 % 1016,8 hPa 0,0 l/m N 0,00 h 0 W/m 0,1 km/h (0 Bft)
29.07.2011 04:00 12,3 C 99 % 1016,8 hPa 0,0 l/m N 0,00 h 0 W/m 1,6 km/h (1 Bft)
29.07.2011 05:00 12,6 C 99 % 1016,9 hPa 0,0 l/m N 0,00 h 0 W/m 0,4 km/h (0 Bft)
29.07.2011 06:00 13,0 C 99 % 1016,8 hPa 0,0 l/m S 0,00 h 13 W/m 2,7 km/h (1 Bft)
29.07.2011 07:00 13,5 C 100 % 1016,8 hPa 0,0 l/m S-SW 0,08 h 75 W/m 7,2 km/h (2 Bft)
29.07.2011 08:00 14,0 C 100 % 1016,9 hPa 0,0 l/m S-SW 0,08 h 145 W/m 7,1 km/h (2 Bft)
29.07.2011 09:00 15,2 C 97 % 1017,0 hPa 0,0 l/m S-SW 0,33 h 294 W/m 9,3 km/h (2 Bft)
29.07.2011 10:00 17,5 C 88 % 1016,8 hPa 0,0 l/m S-SO 0,92 h 581 W/m 10,5 km/h (2 Bft)
29.07.2011 11:00 19,2 C 80 % 1016,5 hPa 0,0 l/m S 0,83 h 679 W/m 10,2 km/h (2 Bft)
29.07.2011 12:00 20,5 C 72 % 1016,0 hPa 0,0 l/m S-SO 0,50 h 640 W/m 8,7 km/h (2 Bft)
29.07.2011 13:00 17,6 C 81 % 1015,9 hPa 0,2 l/m N-NW 0,00 h 78 W/m 9,4 km/h (2 Bft)
29.07.2011 14:00 18,8 C 79 % 1015,5 hPa 0,0 l/m N-NO 0,50 h 504 W/m 6,8 km/h (2 Bft)
29.07.2011 15:00 20,4 C 70 % 1015,1 hPa 0,0 l/m W-SW 0,75 h 656 W/m 9,3 km/h (2 Bft)
29.07.2011 16:00 21,5 C 62 % 1015,0 hPa 0,0 l/m N 0,75 h 599 W/m 14,1 km/h (3 Bft)
29.07.2011 17:00 18,6 C 74 % 1015,0 hPa 0,0 l/m N 0,00 h 180 W/m 11,4 km/h (2 Bft)
29.07.2011 18:00 18,3 C 76 % 1014,8 hPa 0,0 l/m N 0,00 h 95 W/m 6,3 km/h (2 Bft)
29.07.2011 19:00 17,7 C 78 % 1014,9 hPa 0,0 l/m N-NO 0,00 h 61 W/m 4,9 km/h (1 Bft)
29.07.2011 20:00 16,5 C 86 % 1015,1 hPa 0,0 l/m N 0,08 h 21 W/m 1,3 km/h (1 Bft)
29.07.2011 21:00 15,1 C 91 % 1015,4 hPa 0,0 l/m N 0,00 h 0 W/m 1,2 km/h (1 Bft)
29.07.2011 22:00 14,9 C 93 % 1015,3 hPa 0,0 l/m N 0,00 h 0 W/m 0,9 km/h (0 Bft)
29.07.2011 23:00 14,8 C 93 % 1015,2 hPa 0,0 l/m N 0,00 h 0 W/m 0,7 km/h (0 Bft)
30.07.2011 00:00 14,3 C 93 % 1015,3 hPa 0,0 l/m N 0,00 h 0 W/m 1,5 km/h (1 Bft)
30.07.2011 01:00 14,2 C 94 % 1015,0 hPa 0,0 l/m N 0,00 h 0 W/m 0,9 km/h (0 Bft)
30.07.2011 02:00 13,7 C 95 % 1014,6 hPa 0,0 l/m N 0,00 h 0 W/m 1,5 km/h (1 Bft)
30.07.2011 03:00 13,8 C 94 % 1014,5 hPa 0,0 l/m N-NO 0,00 h 0 W/m 3,3 km/h (1 Bft)
30.07.2011 04:00 13,6 C 93 % 1014,0 hPa 0,0 l/m N-NW 0,00 h 0 W/m 5,9 km/h (2 Bft)
30.07.2011 05:00 13,2 C 94 % 1014,1 hPa 0,0 l/m N-NW 0,00 h 0 W/m 4,7 km/h (1 Bft)
30.07.2011 06:00 13,1 C 93 % 1014,2 hPa 0,0 l/m N-NW 0,00 h 10 W/m 6,0 km/h (2 Bft)
30.07.2011 07:00 13,3 C 92 % 1014,3 hPa 0,0 l/m NW 0,00 h 25 W/m 7,5 km/h (2 Bft)
30.07.2011 08:00 13,5 C 89 % 1014,4 hPa 0,0 l/m N 0,00 h 83 W/m 7,2 km/h (2 Bft)
30.07.2011 09:00 13,9 C 85 % 1014,4 hPa 0,0 l/m N-NO 0,00 h 119 W/m 9,1 km/h (2 Bft)
30.07.2011 10:00 13,8 C 85 % 1014,5 hPa 0,0 l/m N 0,00 h 72 W/m 5,9 km/h (2 Bft)
30.07.2011 11:00 15,1 C 79 % 1014,4 hPa 0,0 l/m NW 0,17 h 346 W/m 5,3 km/h (1 Bft)
30.07.2011 12:00 16,3 C 73 % 1014,5 hPa 0,0 l/m W 0,00 h 263 W/m 7,1 km/h (2 Bft)
30.07.2011 13:00 17,4 C 72 % 1014,5 hPa 0,0 l/m SW 0,17 h 330 W/m 8,2 km/h (2 Bft)
30.07.2011 14:00 18,1 C 64 % 1014,4 hPa 0,0 l/m W-NW 0,00 h 303 W/m 13,3 km/h (3 Bft)
30.07.2011 15:00 17,6 C 67 % 1014,4 hPa 0,0 l/m W-NW 0,00 h 168 W/m 12,9 km/h (3 Bft)
30.07.2011 16:00 17,8 C 68 % 1014,4 hPa 0,0 l/m W-NW 0,00 h 182 W/m 10,6 km/h (2 Bft)
30.07.2011 17:00 17,5 C 65 % 1014,2 hPa 0,0 l/m N-NW 0,00 h 124 W/m 11,0 km/h (2 Bft)
30.07.2011 18:00 17,3 C 65 % 1014,1 hPa 0,0 l/m N-NW 0,00 h 105 W/m 10,7 km/h (2 Bft)
30.07.2011 19:00 16,9 C 67 % 1014,3 hPa 0,0 l/m N 0,50 h 146 W/m 10,2 km/h (2 Bft)
30.07.2011 20:00 15,2 C 75 % 1014,6 hPa 0,0 l/m N 0,08 h 22 W/m 6,4 km/h (2 Bft)
30.07.2011 21:00 12,9 C 87 % 1014,9 hPa 0,0 l/m N 0,00 h 0 W/m 2,9 km/h (1 Bft)
30.07.2011 22:00 12,7 C 85 % 1015,2 hPa 0,0 l/m N 0,00 h 0 W/m 4,4 km/h (1 Bft)
30.07.2011 23:00 12,2 C 87 % 1015,3 hPa 0,0 l/m N 0,00 h 0 W/m 3,6 km/h (1 Bft)
31.07.2011 00:00 12,6 C 87 % 1015,5 hPa 0,0 l/m N 0,00 h 0 W/m 3,6 km/h (1 Bft)
31.07.2011 01:00 12,5 C 86 % 1015,4 hPa 0,0 l/m N 0,00 h 0 W/m 2,8 km/h (1 Bft)
31.07.2011 02:00 12,2 C 88 % 1015,0 hPa 0,0 l/m N 0,00 h 0 W/m 2,7 km/h (1 Bft)
31.07.2011 03:00 11,9 C 90 % 1014,6 hPa 0,0 l/m N 0,00 h 0 W/m 2,0 km/h (1 Bft)
31.07.2011 04:00 11,8 C 91 % 1014,3 hPa 0,0 l/m N 0,00 h 0 W/m 2,0 km/h (1 Bft)
31.07.2011 05:00 11,5 C 93 % 1014,1 hPa 0,0 l/m N 0,00 h 0 W/m 1,2 km/h (1 Bft)
31.07.2011 06:00 11,5 C 94 % 1014,2 hPa 0,0 l/m N 0,00 h 18 W/m 0,7 km/h (0 Bft)
31.07.2011 07:00 12,1 C 91 % 1014,2 hPa 0,0 l/m N 0,00 h 81 W/m 2,0 km/h (1 Bft)
31.07.2011 08:00 13,2 C 86 % 1014,4 hPa 0,0 l/m N-NO 0,50 h 220 W/m 6,9 km/h (2 Bft)
31.07.2011 09:00 14,6 C 79 % 1014,3 hPa 0,0 l/m N-NO 0,42 h 304 W/m 7,8 km/h (2 Bft)
31.07.2011 10:00 15,0 C 77 % 1014,3 hPa 0,0 l/m N-NO 0,17 h 262 W/m 7,2 km/h (2 Bft)
31.07.2011 11:00 16,1 C 72 % 1014,4 hPa 0,0 l/m N 0,42 h 431 W/m 5,9 km/h (2 Bft)
31.07.2011 12:00 16,9 C 68 % 1014,2 hPa 0,0 l/m N-NW 0,00 h 280 W/m 7,4 km/h (2 Bft)
31.07.2011 13:00 18,1 C 63 % 1014,0 hPa 0,0 l/m N 0,17 h 438 W/m 9,8 km/h (2 Bft)
31.07.2011 14:00 19,1 C 60 % 1013,6 hPa 0,0 l/m N 0,42 h 622 W/m 11,3 km/h (2 Bft)
31.07.2011 15:00 19,7 C 58 % 1013,4 hPa 0,0 l/m NO 0,75 h 756 W/m 11,0 km/h (2 Bft)
31.07.2011 16:00 20,2 C 55 % 1013,0 hPa 0,0 l/m SO 0,67 h 587 W/m 10,1 km/h (2 Bft)
31.07.2011 17:00 20,6 C 55 % 1012,8 hPa 0,0 l/m O-NO 0,50 h 426 W/m 9,7 km/h (2 Bft)
31.07.2011 18:00 20,3 C 55 % 1012,5 hPa 0,0 l/m O-SO 0,75 h 345 W/m 11,8 km/h (2 Bft)
31.07.2011 19:00 19,7 C 58 % 1012,7 hPa 0,0 l/m O-NO 0,50 h 144 W/m 12,1 km/h (2 Bft)
31.07.2011 20:00 17,4 C 70 % 1013,1 hPa 0,0 l/m O-NO 0,17 h 23 W/m 13,7 km/h (3 Bft)
31.07.2011 21:00 15,2 C 78 % 1013,8 hPa 0,0 l/m O-NO 0,00 h 0 W/m 8,7 km/h (2 Bft)
31.07.2011 22:00 13,5 C 85 % 1014,3 hPa 0,0 l/m N-NO 0,00 h 0 W/m 6,5 km/h (2 Bft)
31.07.2011 23:00 12,3 C 89 % 1014,4 hPa 0,0 l/m N-NO 0,00 h 0 W/m 6,3 km/h (2 Bft)
Min-Datum _ 26.07.11 26.07.11 25.07.11 - - - - 25.07.11
_ Min-Zeit 05:30 15:55 18:20 - - - - 19:25
Minimum _ 7,1 C 34 % 1008,0 hPa - - - - 0,0 km/h (0 Bft)
Max-Datum _ 27.07.11 29.07.11 28.07.11 28.07.11 - 25.07.11 31.07.11 27.07.11
_ Max-Zeit 17:40 06:15 23:50 21:05 - 09:45 14:30 19:35
Maximum _ 23,7 C 100 % 1017,5 hPa 11,2 l/m - 0,08 h 1146 W/m 40,2 km/h
O-SO (6 Bft)
Durchschnitt _ 15,2 C 82 % 1013,5 hPa #17,8 l/m N #29:15 h 283 W/m 5,9 km/h (2 Bft)